sensor_id;sensor_type;location;lat;lon;timestamp;pressure;altitude;pressure_sealevel;temperature;humidity
50682;BME280;36779;52.168;20.878;2023-04-01T00:01:28;98546.68;;;10.00;70.05
50682;BME280;36779;52.168;20.878;2023-04-01T00:04:00;98543.76;;;9.97;69.92
50682;BME280;36779;52.168;20.878;2023-04-01T00:06:30;98544.83;;;9.93;70.06
50682;BME280;36779;52.168;20.878;2023-04-01T00:09:00;98537.92;;;9.89;70.07
50682;BME280;36779;52.168;20.878;2023-04-01T00:11:29;98535.25;;;9.87;69.95
50682;BME280;36779;52.168;20.878;2023-04-01T00:14:02;98528.33;;;9.84;69.81
50682;BME280;36779;52.168;20.878;2023-04-01T00:16:31;98524.33;;;9.82;70.03
50682;BME280;36779;52.168;20.878;2023-04-01T00:19:00;98523.97;;;9.80;69.89
50682;BME280;36779;52.168;20.878;2023-04-01T00:21:28;98518.44;;;9.79;69.88
50682;BME280;36779;52.168;20.878;2023-04-01T00:23:57;98514.75;;;9.77;69.93
50682;BME280;36779;52.168;20.878;2023-04-01T00:26:27;98513.20;;;9.77;69.98
50682;BME280;36779;52.168;20.878;2023-04-01T00:28:56;98511.38;;;9.76;70.09
50682;BME280;36779;52.168;20.878;2023-04-01T00:31:27;98513.94;;;9.78;70.12
50682;BME280;36779;52.168;20.878;2023-04-01T00:33:56;98509.75;;;9.72;69.84
50682;BME280;36779;52.168;20.878;2023-04-01T00:36:27;98512.04;;;9.64;69.79
50682;BME280;36779;52.168;20.878;2023-04-01T00:38:57;98510.08;;;9.68;70.26
50682;BME280;36779;52.168;20.878;2023-04-01T00:41:27;98512.77;;;9.72;70.26
50682;BME280;36779;52.168;20.878;2023-04-01T00:44:20;98517.28;;;9.70;70.11
50682;BME280;36779;52.168;20.878;2023-04-01T00:46:50;98521.26;;;9.67;70.37
50682;BME280;36779;52.168;20.878;2023-04-01T00:49:23;98519.85;;;9.64;70.24
50682;BME280;36779;52.168;20.878;2023-04-01T00:51:55;98517.48;;;9.60;70.24
50682;BME280;36779;52.168;20.878;2023-04-01T00:54:28;98514.14;;;9.56;70.22
50682;BME280;36779;52.168;20.878;2023-04-01T00:57:00;98513.23;;;9.54;70.27
50682;BME280;36779;52.168;20.878;2023-04-01T00:59:33;98513.60;;;9.51;70.19
50682;BME280;36779;52.168;20.878;2023-04-01T01:02:04;98513.77;;;9.52;70.32
50682;BME280;36779;52.168;20.878;2023-04-01T01:04:35;98514.17;;;9.53;70.32
50682;BME280;36779;52.168;20.878;2023-04-01T01:07:14;98509.48;;;9.56;70.50
50682;BME280;36779;52.168;20.878;2023-04-01T01:09:52;98509.10;;;9.59;70.47
50682;BME280;36779;52.168;20.878;2023-04-01T01:12:24;98506.57;;;9.58;70.52
50682;BME280;36779;52.168;20.878;2023-04-01T01:15:05;98505.05;;;9.55;70.47
50682;BME280;36779;52.168;20.878;2023-04-01T01:17:44;98506.94;;;9.53;70.59
50682;BME280;36779;52.168;20.878;2023-04-01T01:20:44;98507.71;;;9.54;70.55
50682;BME280;36779;52.168;20.878;2023-04-01T01:23:29;98505.13;;;9.53;70.55
50682;BME280;36779;52.168;20.878;2023-04-01T01:26:15;98508.41;;;9.54;70.60
50682;BME280;36779;52.168;20.878;2023-04-01T01:29:04;98509.45;;;9.53;70.64
50682;BME280;36779;52.168;20.878;2023-04-01T01:31:45;98507.58;;;9.52;70.70
50682;BME280;36779;52.168;20.878;2023-04-01T01:34:23;98510.04;;;9.52;70.60
50682;BME280;36779;52.168;20.878;2023-04-01T01:36:59;98512.17;;;9.54;70.71
50682;BME280;36779;52.168;20.878;2023-04-01T01:39:35;98513.47;;;9.53;70.70
50682;BME280;36779;52.168;20.878;2023-04-01T01:42:06;98515.11;;;9.50;70.54
50682;BME280;36779;52.168;20.878;2023-04-01T01:44:38;98515.35;;;9.48;70.61
50682;BME280;36779;52.168;20.878;2023-04-01T01:47:08;98516.36;;;9.46;70.67
50682;BME280;36779;52.168;20.878;2023-04-01T01:49:39;98513.13;;;9.44;70.54
50682;BME280;36779;52.168;20.878;2023-04-01T01:52:11;98515.83;;;9.45;70.66
50682;BME280;36779;52.168;20.878;2023-04-01T01:54:48;98516.04;;;9.46;70.79
50682;BME280;36779;52.168;20.878;2023-04-01T01:57:29;98514.41;;;9.49;70.84
50682;BME280;36779;52.168;20.878;2023-04-01T02:00:04;98509.59;;;9.53;70.82
50682;BME280;36779;52.168;20.878;2023-04-01T02:02:44;98511.61;;;9.57;70.90
50682;BME280;36779;52.168;20.878;2023-04-01T02:05:19;98505.25;;;9.55;70.66
50682;BME280;36779;52.168;20.878;2023-04-01T02:07:54;98505.39;;;9.55;70.91
50682;BME280;36779;52.168;20.878;2023-04-01T02:10:29;98503.50;;;9.59;70.95
50682;BME280;36779;52.168;20.878;2023-04-01T02:13:03;98497.08;;;9.56;70.87
50682;BME280;36779;52.168;20.878;2023-04-01T02:15:40;98491.10;;;9.52;70.71
50682;BME280;36779;52.168;20.878;2023-04-01T02:18:09;98491.77;;;9.48;70.68
50682;BME280;36779;52.168;20.878;2023-04-01T02:20:40;98493.86;;;9.47;70.81
50682;BME280;36779;52.168;20.878;2023-04-01T02:23:11;98495.58;;;9.47;70.92
50682;BME280;36779;52.168;20.878;2023-04-01T02:25:42;98492.95;;;9.45;70.84
50682;BME280;36779;52.168;20.878;2023-04-01T02:28:14;98491.40;;;9.43;70.70
50682;BME280;36779;52.168;20.878;2023-04-01T02:30:50;98487.42;;;9.41;70.82
50682;BME280;36779;52.168;20.878;2023-04-01T02:33:21;98485.29;;;9.39;70.83
50682;BME280;36779;52.168;20.878;2023-04-01T02:35:52;98479.23;;;9.37;70.75
50682;BME280;36779;52.168;20.878;2023-04-01T02:38:22;98476.48;;;9.38;70.86
50682;BME280;36779;52.168;20.878;2023-04-01T02:40:59;98476.58;;;9.41;71.01
50682;BME280;36779;52.168;20.878;2023-04-01T02:43:30;98476.63;;;9.43;71.03
50682;BME280;36779;52.168;20.878;2023-04-01T02:45:59;98477.02;;;9.41;70.98
50682;BME280;36779;52.168;20.878;2023-04-01T02:48:30;98475.51;;;9.40;71.15
50682;BME280;36779;52.168;20.878;2023-04-01T02:51:00;98478.62;;;9.38;71.16
50682;BME280;36779;52.168;20.878;2023-04-01T02:53:32;98486.17;;;9.33;71.13
50682;BME280;36779;52.168;20.878;2023-04-01T02:56:01;98487.42;;;9.27;70.88
50682;BME280;36779;52.168;20.878;2023-04-01T02:58:30;98488.19;;;9.22;70.88
50682;BME280;36779;52.168;20.878;2023-04-01T03:01:00;98489.96;;;9.17;70.98
50682;BME280;36779;52.168;20.878;2023-04-01T03:03:29;98492.13;;;9.13;70.90
50682;BME280;36779;52.168;20.878;2023-04-01T03:05:58;98493.33;;;9.09;71.03
50682;BME280;36779;52.168;20.878;2023-04-01T03:08:33;98496.52;;;9.08;71.05
50682;BME280;36779;52.168;20.878;2023-04-01T03:11:02;98497.65;;;9.07;71.06
50682;BME280;36779;52.168;20.878;2023-04-01T03:13:33;98498.38;;;9.04;70.98
50682;BME280;36779;52.168;20.878;2023-04-01T03:16:02;98501.56;;;9.02;70.98
50682;BME280;36779;52.168;20.878;2023-04-01T03:18:32;98501.85;;;9.01;71.04
50682;BME280;36779;52.168;20.878;2023-04-01T03:21:14;98500.98;;;9.01;71.14
50682;BME280;36779;52.168;20.878;2023-04-01T03:23:43;98504.19;;;9.01;71.18
50682;BME280;36779;52.168;20.878;2023-04-01T03:26:13;98503.85;;;9.01;71.08
50682;BME280;36779;52.168;20.878;2023-04-01T03:28:42;98507.29;;;9.01;71.16
50682;BME280;36779;52.168;20.878;2023-04-01T03:31:11;98507.06;;;9.00;71.14
50682;BME280;36779;52.168;20.878;2023-04-01T03:33:44;98505.63;;;8.99;71.10
50682;BME280;36779;52.168;20.878;2023-04-01T03:36:13;98508.98;;;8.98;71.27
50682;BME280;36779;52.168;20.878;2023-04-01T03:38:43;98511.56;;;8.97;71.20
50682;BME280;36779;52.168;20.878;2023-04-01T03:41:14;98512.46;;;8.97;71.23
50682;BME280;36779;52.168;20.878;2023-04-01T03:43:44;98514.05;;;8.98;71.31
50682;BME280;36779;52.168;20.878;2023-04-01T03:46:26;98516.40;;;9.02;71.30
50682;BME280;36779;52.168;20.878;2023-04-01T03:48:55;98516.85;;;9.03;71.26
50682;BME280;36779;52.168;20.878;2023-04-01T03:51:26;98519.29;;;9.05;71.29
50682;BME280;36779;52.168;20.878;2023-04-01T03:53:55;98523.94;;;9.03;71.30
50682;BME280;36779;52.168;20.878;2023-04-01T03:56:28;98525.50;;;9.04;71.49
50682;BME280;36779;52.168;20.878;2023-04-01T03:58:57;98529.17;;;9.04;71.45
50682;BME280;36779;52.168;20.878;2023-04-01T04:01:26;98531.10;;;9.06;71.55
50682;BME280;36779;52.168;20.878;2023-04-01T04:03:58;98535.69;;;9.09;71.47
50682;BME280;36779;52.168;20.878;2023-04-01T04:06:29;98536.05;;;9.07;71.33
50682;BME280;36779;52.168;20.878;2023-04-01T04:08:58;98538.70;;;9.06;71.31
50682;BME280;36779;52.168;20.878;2023-04-01T04:11:31;98539.16;;;9.04;71.46
50682;BME280;36779;52.168;20.878;2023-04-01T04:14:00;98543.67;;;9.02;71.31
50682;BME280;36779;52.168;20.878;2023-04-01T04:16:33;98544.11;;;9.00;71.41
50682;BME280;36779;52.168;20.878;2023-04-01T04:19:06;98547.35;;;9.00;71.48
50682;BME280;36779;52.168;20.878;2023-04-01T04:21:38;98547.24;;;8.99;71.56
50682;BME280;36779;52.168;20.878;2023-04-01T04:24:09;98552.57;;;8.98;71.53
50682;BME280;36779;52.168;20.878;2023-04-01T04:27:02;98556.61;;;8.94;71.56
50682;BME280;36779;52.168;20.878;2023-04-01T04:29:32;98561.24;;;8.91;71.42
50682;BME280;36779;52.168;20.878;2023-04-01T04:32:02;98567.37;;;8.90;71.44
50682;BME280;36779;52.168;20.878;2023-04-01T04:34:32;98564.88;;;8.91;71.58
50682;BME280;36779;52.168;20.878;2023-04-01T04:37:01;98566.02;;;8.91;71.60
50682;BME280;36779;52.168;20.878;2023-04-01T04:39:36;98560.63;;;8.90;71.53
50682;BME280;36779;52.168;20.878;2023-04-01T04:42:05;98561.20;;;8.90;71.65
50682;BME280;36779;52.168;20.878;2023-04-01T04:44:35;98558.98;;;8.93;71.57
50682;BME280;36779;52.168;20.878;2023-04-01T04:47:03;98558.05;;;8.98;71.68
50682;BME280;36779;52.168;20.878;2023-04-01T04:49:33;98557.42;;;9.04;71.83
50682;BME280;36779;52.168;20.878;2023-04-01T04:52:05;98558.55;;;9.08;71.69
50682;BME280;36779;52.168;20.878;2023-04-01T04:54:35;98561.52;;;9.11;71.74
50682;BME280;36779;52.168;20.878;2023-04-01T04:57:05;98561.35;;;9.12;71.71
50682;BME280;36779;52.168;20.878;2023-04-01T04:59:40;98563.80;;;9.09;71.66
50682;BME280;36779;52.168;20.878;2023-04-01T05:02:20;98565.23;;;9.06;71.61
50682;BME280;36779;52.168;20.878;2023-04-01T05:04:49;98566.63;;;9.04;71.55
50682;BME280;36779;52.168;20.878;2023-04-01T05:07:19;98566.20;;;9.01;71.55
50682;BME280;36779;52.168;20.878;2023-04-01T05:09:48;98565.96;;;9.01;71.65
50682;BME280;36779;52.168;20.878;2023-04-01T05:12:16;98563.97;;;9.03;71.69
50682;BME280;36779;52.168;20.878;2023-04-01T05:14:58;98562.39;;;9.04;71.68
50682;BME280;36779;52.168;20.878;2023-04-01T05:17:33;98565.12;;;9.06;71.71
50682;BME280;36779;52.168;20.878;2023-04-01T05:20:06;98567.85;;;9.11;71.90
50682;BME280;36779;52.168;20.878;2023-04-01T05:22:36;98573.50;;;9.20;71.87
50682;BME280;36779;52.168;20.878;2023-04-01T05:25:06;98572.98;;;9.35;72.09
50682;BME280;36779;52.168;20.878;2023-04-01T05:27:35;98569.41;;;9.55;72.03
50682;BME280;36779;52.168;20.878;2023-04-01T05:30:08;98572.04;;;9.64;71.85
50682;BME280;36779;52.168;20.878;2023-04-01T05:33:01;98567.17;;;9.65;71.65
50682;BME280;36779;52.168;20.878;2023-04-01T05:35:30;98567.52;;;9.65;71.81
50682;BME280;36779;52.168;20.878;2023-04-01T05:38:00;98565.13;;;9.66;71.74
50682;BME280;36779;52.168;20.878;2023-04-01T05:40:31;98567.93;;;9.64;71.76
50682;BME280;36779;52.168;20.878;2023-04-01T05:43:00;98571.40;;;9.59;71.64
50682;BME280;36779;52.168;20.878;2023-04-01T05:45:29;98576.88;;;9.54;71.68
50682;BME280;36779;52.168;20.878;2023-04-01T05:48:26;98573.33;;;9.48;71.73
50682;BME280;36779;52.168;20.878;2023-04-01T05:50:55;98576.52;;;9.44;71.69
50682;BME280;36779;52.168;20.878;2023-04-01T05:53:24;98577.35;;;9.42;71.73
50682;BME280;36779;52.168;20.878;2023-04-01T05:55:55;98580.05;;;9.40;71.80
50682;BME280;36779;52.168;20.878;2023-04-01T05:58:27;98580.23;;;9.38;71.70
50682;BME280;36779;52.168;20.878;2023-04-01T06:01:02;98580.86;;;9.39;71.98
50682;BME280;36779;52.168;20.878;2023-04-01T06:03:39;98584.02;;;9.41;71.89
50682;BME280;36779;52.168;20.878;2023-04-01T06:06:14;98583.65;;;9.41;71.93
50682;BME280;36779;52.168;20.878;2023-04-01T06:08:46;98581.13;;;9.44;71.93
50682;BME280;36779;52.168;20.878;2023-04-01T06:11:24;98581.52;;;9.49;72.12
50682;BME280;36779;52.168;20.878;2023-04-01T06:14:15;98586.91;;;9.57;72.07
50682;BME280;36779;52.168;20.878;2023-04-01T06:17:01;98582.56;;;9.68;72.20
50682;BME280;36779;52.168;20.878;2023-04-01T06:19:41;98586.71;;;9.75;72.10
50682;BME280;36779;52.168;20.878;2023-04-01T06:22:44;98590.04;;;9.79;72.07
50682;BME280;36779;52.168;20.878;2023-04-01T06:25:41;98590.02;;;9.81;72.03
50682;BME280;36779;52.168;20.878;2023-04-01T06:28:38;98591.19;;;9.79;71.93
50682;BME280;36779;52.168;20.878;2023-04-01T06:31:23;98591.17;;;9.76;71.99
50682;BME280;36779;52.168;20.878;2023-04-01T06:34:08;98595.36;;;9.74;71.89
50682;BME280;36779;52.168;20.878;2023-04-01T06:37:05;98592.96;;;9.72;71.95
50682;BME280;36779;52.168;20.878;2023-04-01T06:39:58;98593.73;;;9.71;71.96
50682;BME280;36779;52.168;20.878;2023-04-01T06:42:53;98594.73;;;9.72;72.03
50682;BME280;36779;52.168;20.878;2023-04-01T06:45:54;98596.54;;;9.74;71.98
50682;BME280;36779;52.168;20.878;2023-04-01T06:49:02;98595.85;;;9.78;71.98
50682;BME280;36779;52.168;20.878;2023-04-01T06:51:47;98597.73;;;9.81;72.04
50682;BME280;36779;52.168;20.878;2023-04-01T06:54:44;98595.66;;;9.84;72.07
50682;BME280;36779;52.168;20.878;2023-04-01T06:57:43;98598.34;;;9.89;72.13
50682;BME280;36779;52.168;20.878;2023-04-01T07:00:19;98597.69;;;9.91;72.10
50682;BME280;36779;52.168;20.878;2023-04-01T07:02:54;98599.34;;;9.98;72.38
50682;BME280;36779;52.168;20.878;2023-04-01T07:05:30;98600.45;;;10.01;72.19
50682;BME280;36779;52.168;20.878;2023-04-01T07:08:02;98600.73;;;9.98;72.08
50682;BME280;36779;52.168;20.878;2023-04-01T07:10:37;98601.70;;;9.92;71.97
50682;BME280;36779;52.168;20.878;2023-04-01T07:13:32;98603.58;;;9.88;72.08
50682;BME280;36779;52.168;20.878;2023-04-01T07:16:15;98599.48;;;9.86;72.15
50682;BME280;36779;52.168;20.878;2023-04-01T07:18:49;98599.18;;;9.83;71.90
50682;BME280;36779;52.168;20.878;2023-04-01T07:21:28;98597.55;;;9.81;71.97
50682;BME280;36779;52.168;20.878;2023-04-01T07:24:05;98594.71;;;9.83;72.18
50682;BME280;36779;52.168;20.878;2023-04-01T07:26:38;98594.32;;;9.87;72.16
50682;BME280;36779;52.168;20.878;2023-04-01T07:29:14;98595.49;;;9.96;72.35
50682;BME280;36779;52.168;20.878;2023-04-01T07:32:14;98596.00;;;10.09;72.49
50682;BME280;36779;52.168;20.878;2023-04-01T07:34:54;98596.20;;;10.24;72.46
50682;BME280;36779;52.168;20.878;2023-04-01T07:37:27;98598.65;;;10.35;72.61
50682;BME280;36779;52.168;20.878;2023-04-01T07:40:08;98602.30;;;10.45;72.50
50682;BME280;36779;52.168;20.878;2023-04-01T07:42:54;98603.57;;;10.53;72.40
50682;BME280;36779;52.168;20.878;2023-04-01T07:45:31;98602.50;;;10.58;72.41
50682;BME280;36779;52.168;20.878;2023-04-01T07:48:15;98605.16;;;10.54;72.14
50682;BME280;36779;52.168;20.878;2023-04-01T07:50:55;98604.02;;;10.50;71.98
50682;BME280;36779;52.168;20.878;2023-04-01T07:53:36;98608.66;;;10.47;71.97
50682;BME280;36779;52.168;20.878;2023-04-01T07:56:10;98605.12;;;10.45;71.88
50682;BME280;36779;52.168;20.878;2023-04-01T07:58:51;98607.73;;;10.44;71.89
50682;BME280;36779;52.168;20.878;2023-04-01T08:01:54;98611.24;;;10.44;71.94
50682;BME280;36779;52.168;20.878;2023-04-01T08:04:46;98613.48;;;10.47;71.97
50682;BME280;36779;52.168;20.878;2023-04-01T08:07:25;98615.83;;;10.52;72.11
50682;BME280;36779;52.168;20.878;2023-04-01T08:10:28;98614.71;;;10.59;72.16
50682;BME280;36779;52.168;20.878;2023-04-01T08:13:27;98613.16;;;10.72;72.32
50682;BME280;36779;52.168;20.878;2023-04-01T08:16:25;98619.50;;;10.81;72.22
50682;BME280;36779;52.168;20.878;2023-04-01T08:19:03;98623.35;;;10.84;72.10
50682;BME280;36779;52.168;20.878;2023-04-01T08:21:42;98622.70;;;10.80;71.90
50682;BME280;36779;52.168;20.878;2023-04-01T08:24:20;98623.36;;;10.75;72.04
50682;BME280;36779;52.168;20.878;2023-04-01T08:27:06;98626.11;;;10.69;72.02
50682;BME280;36779;52.168;20.878;2023-04-01T08:29:41;98627.29;;;10.64;71.98
50682;BME280;36779;52.168;20.878;2023-04-01T08:32:20;98630.26;;;10.58;71.85
50682;BME280;36779;52.168;20.878;2023-04-01T08:34:58;98630.36;;;10.49;71.81
50682;BME280;36779;52.168;20.878;2023-04-01T08:37:38;98630.33;;;10.43;71.91
50682;BME280;36779;52.168;20.878;2023-04-01T08:43:18;98631.91;;;10.29;71.63
50682;BME280;36779;52.168;20.878;2023-04-01T08:49:07;98633.96;;;10.29;72.01
50682;BME280;36779;52.168;20.878;2023-04-01T08:51:57;98633.19;;;10.31;72.10
50682;BME280;36779;52.168;20.878;2023-04-01T08:54:49;98635.93;;;10.34;72.09
50682;BME280;36779;52.168;20.878;2023-04-01T08:57:49;98638.48;;;10.43;72.18
50682;BME280;36779;52.168;20.878;2023-04-01T09:00:45;98637.16;;;10.47;72.23
50682;BME280;36779;52.168;20.878;2023-04-01T09:03:42;98640.66;;;10.53;72.13
50682;BME280;36779;52.168;20.878;2023-04-01T09:06:35;98641.36;;;10.60;72.15
50682;BME280;36779;52.168;20.878;2023-04-01T09:09:39;98638.91;;;10.61;71.99
50682;BME280;36779;52.168;20.878;2023-04-01T09:12:44;98642.10;;;10.68;72.18
50682;BME280;36779;52.168;20.878;2023-04-01T09:15:48;98643.00;;;10.76;72.04
50682;BME280;36779;52.168;20.878;2023-04-01T09:18:37;98639.69;;;10.73;71.99
50682;BME280;36779;52.168;20.878;2023-04-01T09:24:19;98646.31;;;10.61;71.85
50682;BME280;36779;52.168;20.878;2023-04-01T09:27:05;98650.74;;;10.53;71.92
50682;BME280;36779;52.168;20.878;2023-04-01T09:37:51;98655.03;;;10.26;71.89
50682;BME280;36779;52.168;20.878;2023-04-01T09:40:37;98657.52;;;10.21;72.08
50682;BME280;36779;52.168;20.878;2023-04-01T09:43:28;98657.75;;;10.19;71.93
50682;BME280;36779;52.168;20.878;2023-04-01T09:46:23;98656.65;;;10.22;72.02
50682;BME280;36779;52.168;20.878;2023-04-01T09:49:24;98652.23;;;10.33;72.20
50682;BME280;36779;52.168;20.878;2023-04-01T09:52:12;98658.89;;;10.48;72.32
50682;BME280;36779;52.168;20.878;2023-04-01T09:55:03;98658.09;;;10.64;72.37
50682;BME280;36779;52.168;20.878;2023-04-01T10:34:52;98679.02;;;11.31;71.42
50682;BME280;36779;52.168;20.878;2023-04-01T10:37:46;98680.61;;;11.23;71.44
50682;BME280;36779;52.168;20.878;2023-04-01T10:44:37;98682.14;;;11.13;71.50
50682;BME280;36779;52.168;20.878;2023-04-01T10:47:43;98675.81;;;11.14;71.60
50682;BME280;36779;52.168;20.878;2023-04-01T10:50:26;98675.63;;;11.11;71.66
50682;BME280;36779;52.168;20.878;2023-04-01T10:53:44;98673.98;;;11.14;71.72
50682;BME280;36779;52.168;20.878;2023-04-01T10:56:43;98674.21;;;11.21;71.92
50682;BME280;36779;52.168;20.878;2023-04-01T10:59:51;98674.95;;;11.22;71.77
50682;BME280;36779;52.168;20.878;2023-04-01T11:03:57;98678.64;;;11.21;71.83
50682;BME280;36779;52.168;20.878;2023-04-01T11:07:18;98681.96;;;11.21;71.86
50682;BME280;36779;52.168;20.878;2023-04-01T11:10:18;98679.95;;;11.28;71.90
50682;BME280;36779;52.168;20.878;2023-04-01T11:13:18;98681.27;;;11.36;71.85
50682;BME280;36779;52.168;20.878;2023-04-01T11:16:30;98684.42;;;11.48;71.90
50682;BME280;36779;52.168;20.878;2023-04-01T11:22:21;98683.59;;;11.62;71.86
50682;BME280;36779;52.168;20.878;2023-04-01T11:25:15;98683.69;;;11.61;71.89
50682;BME280;36779;52.168;20.878;2023-04-01T11:28:22;98681.14;;;11.59;71.59
50682;BME280;36779;52.168;20.878;2023-04-01T11:31:05;98680.62;;;11.58;71.65
50682;BME280;36779;52.168;20.878;2023-04-01T11:33:42;98683.81;;;11.56;71.68
50682;BME280;36779;52.168;20.878;2023-04-01T11:36:28;98680.53;;;11.60;71.90
50682;BME280;36779;52.168;20.878;2023-04-01T11:39:16;98682.86;;;11.61;71.73
50682;BME280;36779;52.168;20.878;2023-04-01T11:42:20;98678.55;;;11.61;71.59
50682;BME280;36779;52.168;20.878;2023-04-01T11:45:25;98680.82;;;11.68;71.79
50682;BME280;36779;52.168;20.878;2023-04-01T11:48:33;98678.20;;;11.76;71.67
50682;BME280;36779;52.168;20.878;2023-04-01T11:51:16;98678.67;;;11.82;71.72
50682;BME280;36779;52.168;20.878;2023-04-01T11:53:56;98681.55;;;11.83;71.72
50682;BME280;36779;52.168;20.878;2023-04-01T11:56:43;98683.70;;;11.86;71.70
50682;BME280;36779;52.168;20.878;2023-04-01T11:59:38;98687.20;;;11.79;71.50
50682;BME280;36779;52.168;20.878;2023-04-01T12:02:19;98684.92;;;11.71;71.41
50682;BME280;36779;52.168;20.878;2023-04-01T12:05:33;98684.76;;;11.61;71.24
50682;BME280;36779;52.168;20.878;2023-04-01T12:08:18;98683.74;;;11.67;71.63
50682;BME280;36779;52.168;20.878;2023-04-01T12:11:00;98686.08;;;11.79;71.69
50682;BME280;36779;52.168;20.878;2023-04-01T12:13:35;98687.14;;;11.91;71.83
50682;BME280;36779;52.168;20.878;2023-04-01T12:16:26;98685.39;;;11.98;71.76
50682;BME280;36779;52.168;20.878;2023-04-01T12:19:08;98684.66;;;12.09;71.74
50682;BME280;36779;52.168;20.878;2023-04-01T12:21:44;98686.45;;;12.16;71.87
50682;BME280;36779;52.168;20.878;2023-04-01T12:24:45;98691.71;;;12.23;71.83
50682;BME280;36779;52.168;20.878;2023-04-01T12:30:34;98692.77;;;12.29;71.24
50682;BME280;36779;52.168;20.878;2023-04-01T12:36:19;98689.41;;;12.62;71.85
50682;BME280;36779;52.168;20.878;2023-04-01T12:39:20;98689.41;;;12.89;72.05
50682;BME280;36779;52.168;20.878;2023-04-01T12:41:58;98693.17;;;13.16;72.25
50682;BME280;36779;52.168;20.878;2023-04-01T12:45:03;98692.83;;;13.33;71.91
50682;BME280;36779;52.168;20.878;2023-04-01T12:48:05;98689.98;;;13.31;71.10
50682;BME280;36779;52.168;20.878;2023-04-01T12:50:54;98693.65;;;13.30;71.69
50682;BME280;36779;52.168;20.878;2023-04-01T12:53:36;98693.77;;;13.47;71.75
50682;BME280;36779;52.168;20.878;2023-04-01T12:56:16;98688.80;;;13.48;71.34
50682;BME280;36779;52.168;20.878;2023-04-01T12:59:25;98688.98;;;13.52;71.21
50682;BME280;36779;52.168;20.878;2023-04-01T13:02:02;98690.41;;;13.53;71.45
50682;BME280;36779;52.168;20.878;2023-04-01T13:04:57;98692.86;;;13.53;71.07
50682;BME280;36779;52.168;20.878;2023-04-01T13:07:48;98692.42;;;13.52;70.96
50682;BME280;36779;52.168;20.878;2023-04-01T13:10:58;98694.19;;;13.49;70.86
50682;BME280;36779;52.168;20.878;2023-04-01T13:14:01;98694.83;;;13.45;70.91
50682;BME280;36779;52.168;20.878;2023-04-01T13:16:36;98696.26;;;13.48;71.09
50682;BME280;36779;52.168;20.878;2023-04-01T13:19:11;98696.73;;;13.55;71.15
50682;BME280;36779;52.168;20.878;2023-04-01T13:21:53;98697.59;;;13.58;71.03
50682;BME280;36779;52.168;20.878;2023-04-01T13:24:40;98704.02;;;13.57;70.73
50682;BME280;36779;52.168;20.878;2023-04-01T13:27:17;98708.44;;;13.38;69.98
50682;BME280;36779;52.168;20.878;2023-04-01T13:29:59;98713.30;;;13.05;69.58
50682;BME280;36779;52.168;20.878;2023-04-01T13:32:36;98716.73;;;12.72;69.61
50682;BME280;36779;52.168;20.878;2023-04-01T13:35:21;98726.41;;;12.43;69.65
50682;BME280;36779;52.168;20.878;2023-04-01T13:38:03;98726.51;;;12.16;69.83
50682;BME280;36779;52.168;20.878;2023-04-01T13:40:42;98725.11;;;11.98;70.11
50682;BME280;36779;52.168;20.878;2023-04-01T13:43:32;98730.40;;;11.87;69.95
50682;BME280;36779;52.168;20.878;2023-04-01T13:49:38;98736.84;;;11.78;70.34
50682;BME280;36779;52.168;20.878;2023-04-01T13:52:33;98737.88;;;11.76;70.33
50682;BME280;36779;52.168;20.878;2023-04-01T13:55:31;98740.67;;;11.77;70.49
50682;BME280;36779;52.168;20.878;2023-04-01T13:58:27;98743.04;;;11.73;70.60
50682;BME280;36779;52.168;20.878;2023-04-01T14:01:06;98745.30;;;11.67;70.42
50682;BME280;36779;52.168;20.878;2023-04-01T14:03:55;98749.09;;;11.58;70.36
50682;BME280;36779;52.168;20.878;2023-04-01T14:06:36;98751.91;;;11.38;70.13
50682;BME280;36779;52.168;20.878;2023-04-01T14:09:29;98757.87;;;11.16;69.95
50682;BME280;36779;52.168;20.878;2023-04-01T14:12:09;98764.11;;;10.96;70.18
50682;BME280;36779;52.168;20.878;2023-04-01T14:15:02;98764.23;;;10.81;70.25
50682;BME280;36779;52.168;20.878;2023-04-01T14:17:47;98769.30;;;10.66;70.22
50682;BME280;36779;52.168;20.878;2023-04-01T14:20:33;98768.95;;;10.53;70.30
50682;BME280;36779;52.168;20.878;2023-04-01T14:26:11;98772.75;;;10.33;70.41
50682;BME280;36779;52.168;20.878;2023-04-01T14:28:51;98775.05;;;10.26;70.54
50682;BME280;36779;52.168;20.878;2023-04-01T14:31:31;98775.45;;;10.19;70.58
50682;BME280;36779;52.168;20.878;2023-04-01T14:34:15;98780.65;;;10.18;70.63
50682;BME280;36779;52.168;20.878;2023-04-01T14:36:58;98784.95;;;10.17;70.88
50682;BME280;36779;52.168;20.878;2023-04-01T14:39:47;98786.23;;;10.21;70.94
50682;BME280;36779;52.168;20.878;2023-04-01T14:45:35;98794.98;;;10.15;70.89
50682;BME280;36779;52.168;20.878;2023-04-01T14:48:21;98801.01;;;10.09;71.04
50682;BME280;36779;52.168;20.878;2023-04-01T14:50:54;98801.06;;;10.02;70.90
50682;BME280;36779;52.168;20.878;2023-04-01T14:53:30;98809.66;;;9.96;71.06
50682;BME280;36779;52.168;20.878;2023-04-01T14:56:03;98811.45;;;9.88;71.05
50682;BME280;36779;52.168;20.878;2023-04-01T14:58:43;98813.79;;;9.79;70.94
50682;BME280;36779;52.168;20.878;2023-04-01T15:01:23;98819.22;;;9.70;71.06
50682;BME280;36779;52.168;20.878;2023-04-01T15:04:02;98821.98;;;9.62;71.05
50682;BME280;36779;52.168;20.878;2023-04-01T15:06:48;98824.83;;;9.55;71.02
50682;BME280;36779;52.168;20.878;2023-04-01T15:09:30;98831.39;;;9.51;71.24
50682;BME280;36779;52.168;20.878;2023-04-01T15:12:16;98837.64;;;9.49;71.34
50682;BME280;36779;52.168;20.878;2023-04-01T15:14:58;98838.67;;;9.49;71.32
50682;BME280;36779;52.168;20.878;2023-04-01T15:17:43;98845.29;;;9.49;71.28
50682;BME280;36779;52.168;20.878;2023-04-01T15:20:21;98843.23;;;9.47;71.33
50682;BME280;36779;52.168;20.878;2023-04-01T15:23:03;98843.89;;;9.43;71.43
50682;BME280;36779;52.168;20.878;2023-04-01T15:25:48;98849.05;;;9.37;71.35